sensor_id;sensor_type;location;lat;lon;timestamp;temperature;humidity
9371;DHT22;4725;48.384;8.984;2023-05-13T00:01:32;11.60;99.90
9371;DHT22;4725;48.384;8.984;2023-05-13T00:04:03;10.50;99.90
9371;DHT22;4725;48.384;8.984;2023-05-13T00:06:30;10.60;99.90
9371;DHT22;4725;48.384;8.984;2023-05-13T00:08:57;10.50;99.90
9371;DHT22;4725;48.384;8.984;2023-05-13T00:11:26;10.50;99.90
9371;DHT22;4725;48.384;8.984;2023-05-13T00:13:53;10.50;99.90
9371;DHT22;4725;48.384;8.984;2023-05-13T00:16:20;10.50;99.90
9371;DHT22;4725;48.384;8.984;2023-05-13T00:18:52;10.50;99.90
9371;DHT22;4725;48.384;8.984;2023-05-13T00:21:18;10.50;99.90
9371;DHT22;4725;48.384;8.984;2023-05-13T00:23:45;10.40;99.90
9371;DHT22;4725;48.384;8.984;2023-05-13T00:26:12;10.40;99.90
9371;DHT22;4725;48.384;8.984;2023-05-13T00:28:40;10.40;99.90
9371;DHT22;4725;48.384;8.984;2023-05-13T00:31:07;10.30;99.90
9371;DHT22;4725;48.384;8.984;2023-05-13T00:33:35;10.40;99.90
9371;DHT22;4725;48.384;8.984;2023-05-13T00:36:03;10.30;99.90
9371;DHT22;4725;48.384;8.984;2023-05-13T00:38:30;10.30;99.90
9371;DHT22;4725;48.384;8.984;2023-05-13T00:40:57;10.20;99.90
9371;DHT22;4725;48.384;8.984;2023-05-13T00:43:24;10.20;99.90
9371;DHT22;4725;48.384;8.984;2023-05-13T00:45:52;10.20;99.90
9371;DHT22;4725;48.384;8.984;2023-05-13T00:48:19;10.20;99.90
9371;DHT22;4725;48.384;8.984;2023-05-13T00:50:46;10.10;99.90
9371;DHT22;4725;48.384;8.984;2023-05-13T00:53:14;10.10;99.90
9371;DHT22;4725;48.384;8.984;2023-05-13T00:55:42;10.10;99.90
9371;DHT22;4725;48.384;8.984;2023-05-13T00:58:09;10.20;99.90
9371;DHT22;4725;48.384;8.984;2023-05-13T01:00:40;10.10;99.90
9371;DHT22;4725;48.384;8.984;2023-05-13T01:03:14;10.10;99.90
9371;DHT22;4725;48.384;8.984;2023-05-13T01:05:49;10.00;99.90
9371;DHT22;4725;48.384;8.984;2023-05-13T01:08:32;10.00;99.90
9371;DHT22;4725;48.384;8.984;2023-05-13T01:11:05;10.00;99.90
9371;DHT22;4725;48.384;8.984;2023-05-13T01:13:35;10.00;99.90
9371;DHT22;4725;48.384;8.984;2023-05-13T01:16:19;10.00;99.90
9371;DHT22;4725;48.384;8.984;2023-05-13T01:18:52;10.00;99.90
9371;DHT22;4725;48.384;8.984;2023-05-13T01:21:24;10.00;99.90
9371;DHT22;4725;48.384;8.984;2023-05-13T01:23:51;10.00;99.90
9371;DHT22;4725;48.384;8.984;2023-05-13T01:26:18;9.90;99.90
9371;DHT22;4725;48.384;8.984;2023-05-13T01:28:46;9.90;99.90
9371;DHT22;4725;48.384;8.984;2023-05-13T01:31:13;9.80;99.90
9371;DHT22;4725;48.384;8.984;2023-05-13T01:33:40;9.80;99.90
9371;DHT22;4725;48.384;8.984;2023-05-13T01:36:09;9.80;99.90
9371;DHT22;4725;48.384;8.984;2023-05-13T01:38:38;9.80;99.90
9371;DHT22;4725;48.384;8.984;2023-05-13T01:41:05;9.80;99.90
9371;DHT22;4725;48.384;8.984;2023-05-13T01:43:32;9.80;99.90
9371;DHT22;4725;48.384;8.984;2023-05-13T01:46:00;9.80;99.90
9371;DHT22;4725;48.384;8.984;2023-05-13T01:48:27;9.80;99.90
9371;DHT22;4725;48.384;8.984;2023-05-13T01:50:54;9.80;99.90
9371;DHT22;4725;48.384;8.984;2023-05-13T01:53:21;9.80;99.90
9371;DHT22;4725;48.384;8.984;2023-05-13T01:55:49;9.90;99.90
9371;DHT22;4725;48.384;8.984;2023-05-13T01:58:16;9.90;99.90
9371;DHT22;4725;48.384;8.984;2023-05-13T02:00:43;9.90;99.90
9371;DHT22;4725;48.384;8.984;2023-05-13T02:03:10;9.90;99.90
9371;DHT22;4725;48.384;8.984;2023-05-13T02:05:36;9.90;99.90
9371;DHT22;4725;48.384;8.984;2023-05-13T02:08:04;10.00;99.90
9371;DHT22;4725;48.384;8.984;2023-05-13T02:10:31;10.00;99.90
9371;DHT22;4725;48.384;8.984;2023-05-13T02:12:59;9.90;99.90
9371;DHT22;4725;48.384;8.984;2023-05-13T02:15:26;9.90;99.90
9371;DHT22;4725;48.384;8.984;2023-05-13T02:17:52;9.80;99.90
9371;DHT22;4725;48.384;8.984;2023-05-13T02:20:19;9.90;99.90
9371;DHT22;4725;48.384;8.984;2023-05-13T02:22:46;9.90;99.90
9371;DHT22;4725;48.384;8.984;2023-05-13T02:25:13;9.90;99.90
9371;DHT22;4725;48.384;8.984;2023-05-13T02:27:40;9.90;99.90
9371;DHT22;4725;48.384;8.984;2023-05-13T02:30:09;9.90;99.90
9371;DHT22;4725;48.384;8.984;2023-05-13T02:32:36;9.90;99.90
9371;DHT22;4725;48.384;8.984;2023-05-13T02:35:03;9.90;99.90
9371;DHT22;4725;48.384;8.984;2023-05-13T02:37:30;9.90;99.90
9371;DHT22;4725;48.384;8.984;2023-05-13T02:39:57;9.90;99.90
9371;DHT22;4725;48.384;8.984;2023-05-13T02:42:24;9.90;99.90
9371;DHT22;4725;48.384;8.984;2023-05-13T02:47:19;8.80;99.90
9371;DHT22;4725;48.384;8.984;2023-05-13T02:49:46;9.90;99.90
9371;DHT22;4725;48.384;8.984;2023-05-13T02:52:13;9.90;99.90
9371;DHT22;4725;48.384;8.984;2023-05-13T02:54:40;9.90;99.90
9371;DHT22;4725;48.384;8.984;2023-05-13T02:57:06;9.90;99.90
9371;DHT22;4725;48.384;8.984;2023-05-13T02:59:33;9.80;99.90
9371;DHT22;4725;48.384;8.984;2023-05-13T03:02:00;9.80;99.90
9371;DHT22;4725;48.384;8.984;2023-05-13T03:04:28;9.80;99.90
9371;DHT22;4725;48.384;8.984;2023-05-13T03:06:55;9.80;99.90
9371;DHT22;4725;48.384;8.984;2023-05-13T03:09:22;9.80;99.90
9371;DHT22;4725;48.384;8.984;2023-05-13T03:11:49;9.80;99.90
9371;DHT22;4725;48.384;8.984;2023-05-13T03:14:16;9.80;99.90
9371;DHT22;4725;48.384;8.984;2023-05-13T03:16:43;9.80;99.90
9371;DHT22;4725;48.384;8.984;2023-05-13T03:19:10;9.70;99.90
9371;DHT22;4725;48.384;8.984;2023-05-13T03:21:38;9.70;99.90
9371;DHT22;4725;48.384;8.984;2023-05-13T03:24:05;9.80;99.90
9371;DHT22;4725;48.384;8.984;2023-05-13T03:26:32;9.80;99.90
9371;DHT22;4725;48.384;8.984;2023-05-13T03:28:59;9.80;99.90
9371;DHT22;4725;48.384;8.984;2023-05-13T03:31:26;9.90;99.90
9371;DHT22;4725;48.384;8.984;2023-05-13T03:33:53;9.80;99.90
9371;DHT22;4725;48.384;8.984;2023-05-13T03:36:20;9.80;99.90
9371;DHT22;4725;48.384;8.984;2023-05-13T03:38:48;9.80;99.90
9371;DHT22;4725;48.384;8.984;2023-05-13T03:41:15;9.80;99.90
9371;DHT22;4725;48.384;8.984;2023-05-13T03:43:42;9.80;99.90
9371;DHT22;4725;48.384;8.984;2023-05-13T03:48:36;9.80;99.90
9371;DHT22;4725;48.384;8.984;2023-05-13T03:51:04;9.70;99.90
9371;DHT22;4725;48.384;8.984;2023-05-13T03:53:31;9.70;99.90
9371;DHT22;4725;48.384;8.984;2023-05-13T03:58:27;9.80;99.90
9371;DHT22;4725;48.384;8.984;2023-05-13T04:00:54;9.70;99.90
9371;DHT22;4725;48.384;8.984;2023-05-13T04:03:21;9.60;99.90
9371;DHT22;4725;48.384;8.984;2023-05-13T04:05:49;9.70;99.90
9371;DHT22;4725;48.384;8.984;2023-05-13T04:08:16;9.30;99.90
9371;DHT22;4725;48.384;8.984;2023-05-13T04:10:43;9.70;99.90
9371;DHT22;4725;48.384;8.984;2023-05-13T04:13:11;9.70;99.90
9371;DHT22;4725;48.384;8.984;2023-05-13T04:15:39;9.70;99.90
9371;DHT22;4725;48.384;8.984;2023-05-13T04:18:06;9.60;99.90
9371;DHT22;4725;48.384;8.984;2023-05-13T04:20:32;9.60;99.90
9371;DHT22;4725;48.384;8.984;2023-05-13T04:22:59;9.60;99.90
9371;DHT22;4725;48.384;8.984;2023-05-13T04:25:27;9.60;99.90
9371;DHT22;4725;48.384;8.984;2023-05-13T04:27:54;9.50;99.90
9371;DHT22;4725;48.384;8.984;2023-05-13T04:30:22;9.50;99.90
9371;DHT22;4725;48.384;8.984;2023-05-13T04:32:49;9.50;99.90
9371;DHT22;4725;48.384;8.984;2023-05-13T04:35:16;9.50;99.90
9371;DHT22;4725;48.384;8.984;2023-05-13T04:37:42;9.50;99.90
9371;DHT22;4725;48.384;8.984;2023-05-13T04:40:10;9.50;99.90
9371;DHT22;4725;48.384;8.984;2023-05-13T04:42:37;9.40;99.90
9371;DHT22;4725;48.384;8.984;2023-05-13T04:45:05;9.50;99.90
9371;DHT22;4725;48.384;8.984;2023-05-13T04:47:33;9.50;99.90
9371;DHT22;4725;48.384;8.984;2023-05-13T04:50:02;9.50;99.90
9371;DHT22;4725;48.384;8.984;2023-05-13T04:52:29;9.50;99.90
9371;DHT22;4725;48.384;8.984;2023-05-13T04:54:56;9.50;99.90
9371;DHT22;4725;48.384;8.984;2023-05-13T04:57:23;9.60;99.90
9371;DHT22;4725;48.384;8.984;2023-05-13T04:59:49;9.70;99.90
9371;DHT22;4725;48.384;8.984;2023-05-13T05:02:16;9.70;99.90
9371;DHT22;4725;48.384;8.984;2023-05-13T05:04:45;9.70;99.90
9371;DHT22;4725;48.384;8.984;2023-05-13T05:07:13;9.50;99.90
9371;DHT22;4725;48.384;8.984;2023-05-13T05:09:40;9.50;99.90
9371;DHT22;4725;48.384;8.984;2023-05-13T05:12:07;9.50;99.90
9371;DHT22;4725;48.384;8.984;2023-05-13T05:14:34;9.50;99.90
9371;DHT22;4725;48.384;8.984;2023-05-13T05:17:03;9.50;99.90
9371;DHT22;4725;48.384;8.984;2023-05-13T05:19:29;9.40;99.90
9371;DHT22;4725;48.384;8.984;2023-05-13T05:21:58;9.50;99.90
9371;DHT22;4725;48.384;8.984;2023-05-13T05:24:24;9.60;99.90
9371;DHT22;4725;48.384;8.984;2023-05-13T05:26:51;9.60;99.90
9371;DHT22;4725;48.384;8.984;2023-05-13T05:29:18;9.70;99.90
9371;DHT22;4725;48.384;8.984;2023-05-13T05:31:45;9.60;99.90
9371;DHT22;4725;48.384;8.984;2023-05-13T05:34:12;8.00;99.90
9371;DHT22;4725;48.384;8.984;2023-05-13T05:39:07;9.60;99.90
9371;DHT22;4725;48.384;8.984;2023-05-13T05:41:35;9.50;99.90
9371;DHT22;4725;48.384;8.984;2023-05-13T05:44:02;9.60;99.90
9371;DHT22;4725;48.384;8.984;2023-05-13T05:46:29;9.60;99.90
9371;DHT22;4725;48.384;8.984;2023-05-13T05:48:56;9.60;99.90
9371;DHT22;4725;48.384;8.984;2023-05-13T05:51:22;9.50;99.90
9371;DHT22;4725;48.384;8.984;2023-05-13T05:53:49;9.50;99.90
9371;DHT22;4725;48.384;8.984;2023-05-13T05:56:18;9.50;99.90
9371;DHT22;4725;48.384;8.984;2023-05-13T05:58:45;9.50;99.90
9371;DHT22;4725;48.384;8.984;2023-05-13T06:01:12;9.70;99.90
9371;DHT22;4725;48.384;8.984;2023-05-13T06:03:39;9.70;99.90
9371;DHT22;4725;48.384;8.984;2023-05-13T06:06:06;9.70;99.90
9371;DHT22;4725;48.384;8.984;2023-05-13T06:08:33;9.80;99.90
9371;DHT22;4725;48.384;8.984;2023-05-13T06:11:00;9.80;99.90
9371;DHT22;4725;48.384;8.984;2023-05-13T06:13:28;9.80;99.90
9371;DHT22;4725;48.384;8.984;2023-05-13T06:15:55;9.80;99.90
9371;DHT22;4725;48.384;8.984;2023-05-13T06:18:22;9.90;99.90
9371;DHT22;4725;48.384;8.984;2023-05-13T06:20:48;10.00;99.90
9371;DHT22;4725;48.384;8.984;2023-05-13T06:23:15;10.00;99.90
9371;DHT22;4725;48.384;8.984;2023-05-13T06:25:42;10.00;99.90
9371;DHT22;4725;48.384;8.984;2023-05-13T06:28:09;10.10;99.90
9371;DHT22;4725;48.384;8.984;2023-05-13T06:30:38;10.00;99.90
9371;DHT22;4725;48.384;8.984;2023-05-13T06:33:05;9.90;99.90
9371;DHT22;4725;48.384;8.984;2023-05-13T06:38:02;9.90;99.90
9371;DHT22;4725;48.384;8.984;2023-05-13T06:40:29;9.80;99.90
9371;DHT22;4725;48.384;8.984;2023-05-13T06:42:56;9.90;99.90
9371;DHT22;4725;48.384;8.984;2023-05-13T06:45:22;10.00;99.90
9371;DHT22;4725;48.384;8.984;2023-05-13T06:47:52;10.10;99.90
9371;DHT22;4725;48.384;8.984;2023-05-13T06:50:19;10.10;99.90
9371;DHT22;4725;48.384;8.984;2023-05-13T06:55:13;10.20;99.90
9371;DHT22;4725;48.384;8.984;2023-05-13T06:57:41;10.10;99.90
9371;DHT22;4725;48.384;8.984;2023-05-13T07:00:12;10.10;99.90
9371;DHT22;4725;48.384;8.984;2023-05-13T07:05:08;10.20;99.90
9371;DHT22;4725;48.384;8.984;2023-05-13T07:07:35;10.30;99.90
9371;DHT22;4725;48.384;8.984;2023-05-13T07:10:02;10.30;99.90
9371;DHT22;4725;48.384;8.984;2023-05-13T07:12:29;10.40;99.90
9371;DHT22;4725;48.384;8.984;2023-05-13T07:14:57;10.50;99.90
9371;DHT22;4725;48.384;8.984;2023-05-13T07:17:24;10.70;99.90
9371;DHT22;4725;48.384;8.984;2023-05-13T07:19:50;10.70;99.90
9371;DHT22;4725;48.384;8.984;2023-05-13T07:22:19;11.00;99.90
9371;DHT22;4725;48.384;8.984;2023-05-13T07:24:45;10.70;99.90
9371;DHT22;4725;48.384;8.984;2023-05-13T07:27:12;10.60;99.90
9371;DHT22;4725;48.384;8.984;2023-05-13T07:29:39;10.60;99.90
9371;DHT22;4725;48.384;8.984;2023-05-13T07:32:07;8.50;99.90
9371;DHT22;4725;48.384;8.984;2023-05-13T07:34:34;10.40;99.90
9371;DHT22;4725;48.384;8.984;2023-05-13T07:37:00;10.40;99.90
9371;DHT22;4725;48.384;8.984;2023-05-13T07:39:29;10.50;99.90
9371;DHT22;4725;48.384;8.984;2023-05-13T07:41:56;10.50;99.90
9371;DHT22;4725;48.384;8.984;2023-05-13T07:44:23;10.60;99.90
9371;DHT22;4725;48.384;8.984;2023-05-13T07:46:50;10.60;99.90
9371;DHT22;4725;48.384;8.984;2023-05-13T07:49:18;10.60;99.90
9371;DHT22;4725;48.384;8.984;2023-05-13T07:51:44;10.70;99.90
9371;DHT22;4725;48.384;8.984;2023-05-13T07:54:11;10.70;99.90
9371;DHT22;4725;48.384;8.984;2023-05-13T07:56:40;10.80;99.90
9371;DHT22;4725;48.384;8.984;2023-05-13T07:59:08;10.90;99.90
9371;DHT22;4725;48.384;8.984;2023-05-13T08:01:35;10.90;99.90
9371;DHT22;4725;48.384;8.984;2023-05-13T08:04:02;10.90;99.90
9371;DHT22;4725;48.384;8.984;2023-05-13T08:06:29;11.00;99.90
9371;DHT22;4725;48.384;8.984;2023-05-13T08:08:56;11.00;99.90
9371;DHT22;4725;48.384;8.984;2023-05-13T08:11:23;10.80;99.90
9371;DHT22;4725;48.384;8.984;2023-05-13T08:13:52;11.00;99.90
9371;DHT22;4725;48.384;8.984;2023-05-13T08:16:19;10.90;99.90
9371;DHT22;4725;48.384;8.984;2023-05-13T08:18:46;10.80;99.90
9371;DHT22;4725;48.384;8.984;2023-05-13T08:21:12;10.90;99.90
9371;DHT22;4725;48.384;8.984;2023-05-13T08:23:39;11.00;99.90
9371;DHT22;4725;48.384;8.984;2023-05-13T08:26:06;11.00;99.90
9371;DHT22;4725;48.384;8.984;2023-05-13T08:31:02;11.10;99.90
9371;DHT22;4725;48.384;8.984;2023-05-13T08:33:29;11.20;99.90
9371;DHT22;4725;48.384;8.984;2023-05-13T08:35:58;10.50;99.90
9371;DHT22;4725;48.384;8.984;2023-05-13T08:38:25;11.50;99.90
9371;DHT22;4725;48.384;8.984;2023-05-13T08:40:51;11.30;99.90
9371;DHT22;4725;48.384;8.984;2023-05-13T08:43:19;11.50;99.90
9371;DHT22;4725;48.384;8.984;2023-05-13T08:45:47;11.60;99.90
9371;DHT22;4725;48.384;8.984;2023-05-13T08:48:17;11.60;99.90
9371;DHT22;4725;48.384;8.984;2023-05-13T08:50:46;11.50;99.90
9371;DHT22;4725;48.384;8.984;2023-05-13T08:53:16;11.50;99.90
9371;DHT22;4725;48.384;8.984;2023-05-13T08:55:43;11.40;99.90
9371;DHT22;4725;48.384;8.984;2023-05-13T08:58:10;11.30;99.90
9371;DHT22;4725;48.384;8.984;2023-05-13T09:00:39;11.30;99.90
9371;DHT22;4725;48.384;8.984;2023-05-13T09:03:06;11.30;99.90
9371;DHT22;4725;48.384;8.984;2023-05-13T09:05:35;11.50;99.90
9371;DHT22;4725;48.384;8.984;2023-05-13T09:08:06;11.40;99.90
9371;DHT22;4725;48.384;8.984;2023-05-13T09:10:34;11.40;99.90
9371;DHT22;4725;48.384;8.984;2023-05-13T09:15:29;11.40;99.90
9371;DHT22;4725;48.384;8.984;2023-05-13T09:17:58;11.50;99.90
9371;DHT22;4725;48.384;8.984;2023-05-13T09:20:25;11.40;99.90
9371;DHT22;4725;48.384;8.984;2023-05-13T09:22:56;11.60;99.90
9371;DHT22;4725;48.384;8.984;2023-05-13T09:25:24;11.60;99.90
9371;DHT22;4725;48.384;8.984;2023-05-13T09:27:52;11.70;99.90
9371;DHT22;4725;48.384;8.984;2023-05-13T09:30:22;11.60;99.90
9371;DHT22;4725;48.384;8.984;2023-05-13T09:33:04;11.60;99.90
9371;DHT22;4725;48.384;8.984;2023-05-13T09:35:32;11.90;99.90
9371;DHT22;4725;48.384;8.984;2023-05-13T09:38:00;11.90;99.90
9371;DHT22;4725;48.384;8.984;2023-05-13T09:40:27;11.80;99.90
9371;DHT22;4725;48.384;8.984;2023-05-13T09:42:56;9.60;99.90
9371;DHT22;4725;48.384;8.984;2023-05-13T09:45:25;11.70;99.90
9371;DHT22;4725;48.384;8.984;2023-05-13T09:47:51;11.80;99.90
9371;DHT22;4725;48.384;8.984;2023-05-13T09:50:21;11.80;99.90
9371;DHT22;4725;48.384;8.984;2023-05-13T09:52:48;11.70;99.90
9371;DHT22;4725;48.384;8.984;2023-05-13T09:55:17;11.80;99.90
9371;DHT22;4725;48.384;8.984;2023-05-13T09:57:44;11.80;99.90
9371;DHT22;4725;48.384;8.984;2023-05-13T10:00:12;11.70;99.90
9371;DHT22;4725;48.384;8.984;2023-05-13T10:02:39;11.70;99.90
9371;DHT22;4725;48.384;8.984;2023-05-13T10:05:08;11.80;99.90
9371;DHT22;4725;48.384;8.984;2023-05-13T10:07:36;12.00;99.90
9371;DHT22;4725;48.384;8.984;2023-05-13T10:10:06;12.00;99.90
9371;DHT22;4725;48.384;8.984;2023-05-13T10:12:35;12.00;99.90
9371;DHT22;4725;48.384;8.984;2023-05-13T10:15:05;11.90;99.90
9371;DHT22;4725;48.384;8.984;2023-05-13T10:17:32;12.10;99.90
9371;DHT22;4725;48.384;8.984;2023-05-13T10:20:00;12.00;99.90
9371;DHT22;4725;48.384;8.984;2023-05-13T10:22:30;12.00;99.90
9371;DHT22;4725;48.384;8.984;2023-05-13T10:24:59;12.10;99.90
9371;DHT22;4725;48.384;8.984;2023-05-13T10:27:28;12.20;99.90
9371;DHT22;4725;48.384;8.984;2023-05-13T10:29:57;12.00;99.90
9371;DHT22;4725;48.384;8.984;2023-05-13T10:32:26;12.00;99.90
9371;DHT22;4725;48.384;8.984;2023-05-13T10:34:59;12.00;99.90
9371;DHT22;4725;48.384;8.984;2023-05-13T10:38:01;11.70;99.90
9371;DHT22;4725;48.384;8.984;2023-05-13T10:40:57;11.70;99.90
9371;DHT22;4725;48.384;8.984;2023-05-13T10:43:30;11.70;99.90
9371;DHT22;4725;48.384;8.984;2023-05-13T10:46:00;11.70;99.90
9371;DHT22;4725;48.384;8.984;2023-05-13T10:48:38;11.80;99.90
9371;DHT22;4725;48.384;8.984;2023-05-13T10:51:05;11.90;99.90
9371;DHT22;4725;48.384;8.984;2023-05-13T10:53:41;12.00;99.90
9371;DHT22;4725;48.384;8.984;2023-05-13T10:56:09;12.00;99.90
9371;DHT22;4725;48.384;8.984;2023-05-13T10:58:36;12.00;99.90
9371;DHT22;4725;48.384;8.984;2023-05-13T11:01:15;11.90;99.90
9371;DHT22;4725;48.384;8.984;2023-05-13T11:03:50;11.90;99.90
9371;DHT22;4725;48.384;8.984;2023-05-13T11:06:19;11.80;99.90
9371;DHT22;4725;48.384;8.984;2023-05-13T11:08:47;11.80;99.90
9371;DHT22;4725;48.384;8.984;2023-05-13T11:11:22;11.60;99.90
9371;DHT22;4725;48.384;8.984;2023-05-13T11:13:50;11.60;99.90
9371;DHT22;4725;48.384;8.984;2023-05-13T11:16:20;11.80;99.90
9371;DHT22;4725;48.384;8.984;2023-05-13T11:18:47;11.70;99.90
9371;DHT22;4725;48.384;8.984;2023-05-13T11:21:14;11.80;99.90
9371;DHT22;4725;48.384;8.984;2023-05-13T11:23:52;11.70;99.90
9371;DHT22;4725;48.384;8.984;2023-05-13T11:26:19;11.60;99.90
9371;DHT22;4725;48.384;8.984;2023-05-13T11:29:02;11.60;99.90
9371;DHT22;4725;48.384;8.984;2023-05-13T11:31:43;11.70;99.90
9371;DHT22;4725;48.384;8.984;2023-05-13T11:34:13;11.70;99.90
9371;DHT22;4725;48.384;8.984;2023-05-13T11:36:43;11.40;99.90
9371;DHT22;4725;48.384;8.984;2023-05-13T11:39:12;11.50;99.90
9371;DHT22;4725;48.384;8.984;2023-05-13T11:41:42;11.50;99.90
9371;DHT22;4725;48.384;8.984;2023-05-13T11:44:11;11.50;99.90
9371;DHT22;4725;48.384;8.984;2023-05-13T11:46:38;11.80;99.90
9371;DHT22;4725;48.384;8.984;2023-05-13T11:49:34;11.80;99.90
9371;DHT22;4725;48.384;8.984;2023-05-13T11:52:02;11.80;99.90
9371;DHT22;4725;48.384;8.984;2023-05-13T11:54:29;11.80;99.90
9371;DHT22;4725;48.384;8.984;2023-05-13T11:56:56;11.90;99.90
9371;DHT22;4725;48.384;8.984;2023-05-13T11:59:24;11.80;99.90
9371;DHT22;4725;48.384;8.984;2023-05-13T12:01:58;11.70;99.90
9371;DHT22;4725;48.384;8.984;2023-05-13T12:04:27;11.70;99.90
9371;DHT22;4725;48.384;8.984;2023-05-13T12:06:55;11.80;99.90
9371;DHT22;4725;48.384;8.984;2023-05-13T12:09:22;11.80;99.90
9371;DHT22;4725;48.384;8.984;2023-05-13T12:11:50;11.80;99.90
9371;DHT22;4725;48.384;8.984;2023-05-13T12:14:18;11.80;99.90
9371;DHT22;4725;48.384;8.984;2023-05-13T12:16:46;11.90;99.90
9371;DHT22;4725;48.384;8.984;2023-05-13T12:19:13;11.80;99.90
9371;DHT22;4725;48.384;8.984;2023-05-13T12:21:40;11.90;99.90
9371;DHT22;4725;48.384;8.984;2023-05-13T12:24:18;11.80;99.90
9371;DHT22;4725;48.384;8.984;2023-05-13T12:26:45;11.70;99.90
9371;DHT22;4725;48.384;8.984;2023-05-13T12:29:12;11.80;99.90
9371;DHT22;4725;48.384;8.984;2023-05-13T12:31:41;11.80;99.90
9371;DHT22;4725;48.384;8.984;2023-05-13T12:34:08;11.80;99.90
9371;DHT22;4725;48.384;8.984;2023-05-13T12:36:36;11.80;99.90
9371;DHT22;4725;48.384;8.984;2023-05-13T12:39:05;11.80;99.90
9371;DHT22;4725;48.384;8.984;2023-05-13T12:41:35;11.90;99.90
9371;DHT22;4725;48.384;8.984;2023-05-13T12:44:04;11.90;99.90
9371;DHT22;4725;48.384;8.984;2023-05-13T12:46:33;12.00;99.90
9371;DHT22;4725;48.384;8.984;2023-05-13T12:49:02;12.00;99.90
9371;DHT22;4725;48.384;8.984;2023-05-13T12:51:29;12.10;99.90
9371;DHT22;4725;48.384;8.984;2023-05-13T12:53:57;12.10;99.90
9371;DHT22;4725;48.384;8.984;2023-05-13T12:56:24;12.30;99.90
9371;DHT22;4725;48.384;8.984;2023-05-13T12:58:53;12.30;99.90
9371;DHT22;4725;48.384;8.984;2023-05-13T13:01:20;12.40;99.90
9371;DHT22;4725;48.384;8.984;2023-05-13T13:03:47;12.40;99.90
9371;DHT22;4725;48.384;8.984;2023-05-13T13:06:14;12.60;99.90
9371;DHT22;4725;48.384;8.984;2023-05-13T13:11:09;12.70;99.90
9371;DHT22;4725;48.384;8.984;2023-05-13T13:13:39;12.80;99.90
9371;DHT22;4725;48.384;8.984;2023-05-13T13:16:07;12.80;99.90
9371;DHT22;4725;48.384;8.984;2023-05-13T13:18:34;12.60;99.90
9371;DHT22;4725;48.384;8.984;2023-05-13T13:21:01;12.50;99.90
9371;DHT22;4725;48.384;8.984;2023-05-13T13:23:29;12.40;99.90
9371;DHT22;4725;48.384;8.984;2023-05-13T13:25:56;12.40;99.90
9371;DHT22;4725;48.384;8.984;2023-05-13T13:28:23;12.50;99.90
9371;DHT22;4725;48.384;8.984;2023-05-13T13:30:50;12.40;99.90
9371;DHT22;4725;48.384;8.984;2023-05-13T13:33:19;12.50;99.90
9371;DHT22;4725;48.384;8.984;2023-05-13T13:35:48;12.30;99.90
9371;DHT22;4725;48.384;8.984;2023-05-13T13:38:15;12.20;99.90
9371;DHT22;4725;48.384;8.984;2023-05-13T13:40:42;12.30;99.90
9371;DHT22;4725;48.384;8.984;2023-05-13T13:43:09;12.40;99.90
9371;DHT22;4725;48.384;8.984;2023-05-13T13:45:36;12.30;99.90
9371;DHT22;4725;48.384;8.984;2023-05-13T13:48:03;12.30;99.90
9371;DHT22;4725;48.384;8.984;2023-05-13T13:50:31;12.30;99.90
9371;DHT22;4725;48.384;8.984;2023-05-13T13:52:58;12.40;99.90
9371;DHT22;4725;48.384;8.984;2023-05-13T13:55:25;12.40;99.90
9371;DHT22;4725;48.384;8.984;2023-05-13T13:57:52;12.50;99.90
9371;DHT22;4725;48.384;8.984;2023-05-13T14:00:19;12.60;99.90
9371;DHT22;4725;48.384;8.984;2023-05-13T14:02:46;12.60;99.90
9371;DHT22;4725;48.384;8.984;2023-05-13T14:05:13;12.60;99.90
9371;DHT22;4725;48.384;8.984;2023-05-13T14:07:41;12.50;99.90
9371;DHT22;4725;48.384;8.984;2023-05-13T14:10:09;12.50;99.90
9371;DHT22;4725;48.384;8.984;2023-05-13T14:12:36;12.40;99.90
9371;DHT22;4725;48.384;8.984;2023-05-13T14:15:04;12.30;99.90
9371;DHT22;4725;48.384;8.984;2023-05-13T14:17:31;12.40;99.90
9371;DHT22;4725;48.384;8.984;2023-05-13T14:19:58;12.40;99.90
9371;DHT22;4725;48.384;8.984;2023-05-13T14:22:25;12.30;99.90
9371;DHT22;4725;48.384;8.984;2023-05-13T14:24:53;12.40;99.90
9371;DHT22;4725;48.384;8.984;2023-05-13T14:27:20;12.50;99.90
9371;DHT22;4725;48.384;8.984;2023-05-13T14:29:49;12.50;99.90
9371;DHT22;4725;48.384;8.984;2023-05-13T14:32:16;12.50;99.90
9371;DHT22;4725;48.384;8.984;2023-05-13T14:34:42;12.50;99.90
9371;DHT22;4725;48.384;8.984;2023-05-13T14:37:09;12.50;99.90
9371;DHT22;4725;48.384;8.984;2023-05-13T14:39:36;12.50;99.90
9371;DHT22;4725;48.384;8.984;2023-05-13T14:42:05;12.50;99.90
9371;DHT22;4725;48.384;8.984;2023-05-13T14:44:32;12.50;99.90
9371;DHT22;4725;48.384;8.984;2023-05-13T14:46:59;12.50;99.90
9371;DHT22;4725;48.384;8.984;2023-05-13T14:49:26;12.50;99.90
9371;DHT22;4725;48.384;8.984;2023-05-13T14:51:53;12.30;99.90
9371;DHT22;4725;48.384;8.984;2023-05-13T14:54:19;12.40;99.90
9371;DHT22;4725;48.384;8.984;2023-05-13T14:56:46;12.30;99.90
9371;DHT22;4725;48.384;8.984;2023-05-13T14:59:15;12.30;99.90
9371;DHT22;4725;48.384;8.984;2023-05-13T15:01:42;12.30;99.90
9371;DHT22;4725;48.384;8.984;2023-05-13T15:04:09;12.50;99.90
9371;DHT22;4725;48.384;8.984;2023-05-13T15:06:36;12.30;99.90
9371;DHT22;4725;48.384;8.984;2023-05-13T15:09:03;12.30;99.90
9371;DHT22;4725;48.384;8.984;2023-05-13T15:11:31;12.30;99.90
9371;DHT22;4725;48.384;8.984;2023-05-13T15:13:58;12.30;99.90
9371;DHT22;4725;48.384;8.984;2023-05-13T15:16:26;12.40;99.90
9371;DHT22;4725;48.384;8.984;2023-05-13T15:18:53;12.40;99.90
9371;DHT22;4725;48.384;8.984;2023-05-13T15:21:20;12.40;99.90
9371;DHT22;4725;48.384;8.984;2023-05-13T15:23:47;12.40;99.90
9371;DHT22;4725;48.384;8.984;2023-05-13T15:26:14;12.40;99.90
9371;DHT22;4725;48.384;8.984;2023-05-13T15:28:40;12.30;99.90
9371;DHT22;4725;48.384;8.984;2023-05-13T15:31:07;12.30;99.90
9371;DHT22;4725;48.384;8.984;2023-05-13T15:33:35;12.30;99.90
9371;DHT22;4725;48.384;8.984;2023-05-13T15:36:03;12.30;99.90
9371;DHT22;4725;48.384;8.984;2023-05-13T15:38:30;12.30;99.90
9371;DHT22;4725;48.384;8.984;2023-05-13T15:40:57;12.30;99.90
9371;DHT22;4725;48.384;8.984;2023-05-13T15:43:24;12.20;99.90
9371;DHT22;4725;48.384;8.984;2023-05-13T15:45:50;12.20;99.90
9371;DHT22;4725;48.384;8.984;2023-05-13T15:48:18;12.30;99.90
9371;DHT22;4725;48.384;8.984;2023-05-13T15:50:46;12.30;99.90
9371;DHT22;4725;48.384;8.984;2023-05-13T15:53:13;12.30;99.90
9371;DHT22;4725;48.384;8.984;2023-05-13T15:55:40;12.30;99.90
9371;DHT22;4725;48.384;8.984;2023-05-13T15:58:06;12.40;99.90
9371;DHT22;4725;48.384;8.984;2023-05-13T16:00:33;12.40;99.90
9371;DHT22;4725;48.384;8.984;2023-05-13T16:03:00;12.30;99.90
9371;DHT22;4725;48.384;8.984;2023-05-13T16:05:27;12.30;99.90
9371;DHT22;4725;48.384;8.984;2023-05-13T16:07:55;12.40;99.90
9371;DHT22;4725;48.384;8.984;2023-05-13T16:10:22;12.60;99.90
9371;DHT22;4725;48.384;8.984;2023-05-13T16:12:49;12.50;99.90
9371;DHT22;4725;48.384;8.984;2023-05-13T16:15:16;12.40;99.90
9371;DHT22;4725;48.384;8.984;2023-05-13T16:17:43;12.50;99.90
9371;DHT22;4725;48.384;8.984;2023-05-13T16:20:11;12.50;99.90
9371;DHT22;4725;48.384;8.984;2023-05-13T16:22:38;12.50;99.90
9371;DHT22;4725;48.384;8.984;2023-05-13T16:25:07;12.40;99.90
9371;DHT22;4725;48.384;8.984;2023-05-13T16:27:35;12.40;99.90
9371;DHT22;4725;48.384;8.984;2023-05-13T16:30:04;12.40;99.90
9371;DHT22;4725;48.384;8.984;2023-05-13T16:32:32;12.40;99.90
9371;DHT22;4725;48.384;8.984;2023-05-13T16:35:00;12.40;99.90
9371;DHT22;4725;48.384;8.984;2023-05-13T16:37:27;12.40;99.90